Time;durP1;ratioP1;P1;durP2;ratioP2;P2;SDS_P1;SDS_P2;PMS_P1;PMS_P2;Temp;Humidity;BMP_temperature;BMP_pressure;BME280_temperature;BME280_humidity;BME280_pressure;Samples;Min_cycle;Max_cycle;Signal;HPM_P1;HPM_P2
2022/01/01 00:00:33;;;;;;;111.60;78.32;;;180.00;2252.80;;;;;;5027946;28;20022;-75
2022/01/01 00:03:00;;;;;;;112.18;78.85;;;180.10;2252.80;;;;;;5036834;28;20079;-74
2022/01/01 00:07:51;;;;;;;161.73;111.72;;;204.80;2252.80;;;;;;5001866;28;20169;-76
2022/01/01 00:10:19;;;;;;;160.88;110.80;;;180.00;2252.80;;;;;;5026923;28;20484;-79
2022/01/01 00:12:46;;;;;;;233.32;149.85;;;180.00;2252.80;;;;;;5016665;28;20026;-80
2022/01/01 00:15:13;;;;;;;185.55;124.07;;;179.90;2252.80;;;;;;4999492;28;20049;-80
2022/01/01 00:17:39;;;;;;;169.90;117.13;;;179.80;2252.80;;;;;;4999463;28;20165;-78
2022/01/01 00:20:09;;;;;;;152.65;103.97;;;179.80;2252.80;;;;;;4999178;28;20030;-81
2022/01/01 00:22:35;;;;;;;190.65;126.47;;;179.90;2252.80;;;;;;4999131;28;20470;-79
2022/01/01 00:25:02;;;;;;;159.45;107.78;;;179.90;2252.80;;;;;;4998650;28;20045;-81
2022/01/01 00:27:28;;;;;;;153.77;107.40;;;179.80;2252.80;;;;;;4999012;28;20378;-80
2022/01/01 00:29:54;;;;;;;138.65;99.15;;;179.80;2252.80;;;;;;5016285;28;20030;-78
2022/01/01 00:32:20;;;;;;;181.50;123.60;;;179.70;2252.80;;;;;;5009858;28;20029;-82
2022/01/01 00:34:46;;;;;;;275.70;182.43;;;179.70;2252.80;;;;;;5018435;28;20116;-80
2022/01/01 00:37:12;;;;;;;308.35;206.60;;;179.60;2252.80;;;;;;5036172;28;20354;-77
2022/01/01 00:39:37;;;;;;;280.63;190.43;;;179.60;2252.80;;;;;;5031247;28;20029;-80
2022/01/01 00:42:04;;;;;;;295.98;200.48;;;179.70;2252.80;;;;;;5006467;28;20076;-81
2022/01/01 00:44:32;;;;;;;252.27;168.32;;;179.60;2252.80;;;;;;4998453;28;20045;-81
2022/01/01 00:46:58;;;;;;;279.10;185.48;;;179.60;2252.80;;;;;;4998791;28;20077;-76
2022/01/01 00:49:24;;;;;;;250.07;174.50;;;179.60;2252.80;;;;;;4999700;28;20433;-81
2022/01/01 00:51:50;;;;;;;279.45;184.63;;;179.70;2252.80;;;;;;5027823;28;20028;-79
2022/01/01 00:54:16;;;;;;;299.92;199.88;;;179.70;2252.80;;;;;;5018119;28;20052;-80
2022/01/01 00:56:42;;;;;;;326.20;204.55;;;179.60;2252.80;;;;;;5018146;28;20481;-78
2022/01/01 00:59:08;;;;;;;298.05;197.00;;;179.50;2252.80;;;;;;5017917;28;20021;-80
2022/01/01 01:01:34;;;;;;;300.08;194.65;;;179.40;2252.80;;;;;;5035989;28;20431;-81
2022/01/01 01:04:00;;;;;;;256.85;174.35;;;179.40;2252.80;;;;;;5017835;28;20389;-80
2022/01/01 01:06:25;;;;;;;294.25;190.90;;;179.40;2252.80;;;;;;5007938;28;20030;-79
2022/01/01 01:08:53;;;;;;;250.23;167.98;;;179.50;2252.80;;;;;;5005806;28;20037;-78
2022/01/01 01:11:19;;;;;;;231.55;157.15;;;179.40;2252.80;;;;;;5008366;28;20115;-81
2022/01/01 01:13:55;;;;;;;262.38;176.93;;;179.40;2252.80;;;;;;5003063;28;20065;-80
2022/01/01 01:16:21;;;;;;;374.30;213.25;;;179.50;2252.80;;;;;;4997964;28;20026;-79
2022/01/01 01:18:47;;;;;;;236.77;158.05;;;179.30;2252.80;;;;;;4997952;28;20022;-80
2022/01/01 01:21:12;;;;;;;286.60;195.80;;;179.40;2252.80;;;;;;4997964;28;20073;-80
2022/01/01 01:23:38;;;;;;;284.42;195.02;;;179.40;2252.80;;;;;;5015272;28;20042;-81
2022/01/01 01:26:04;;;;;;;302.45;196.80;;;179.20;2252.80;;;;;;5011517;28;20038;-79
2022/01/01 01:28:30;;;;;;;280.45;181.15;;;179.30;2252.80;;;;;;5017594;28;20060;-80
2022/01/01 01:30:56;;;;;;;281.92;184.13;;;179.20;2252.80;;;;;;5017331;28;20112;-79
2022/01/01 01:33:22;;;;;;;269.95;177.75;;;179.20;2252.80;;;;;;5032468;28;20048;-80
2022/01/01 01:35:48;;;;;;;269.73;176.88;;;154.50;2252.80;;;;;;5005072;28;20026;-79
2022/01/01 01:38:13;;;;;;;235.93;158.13;;;154.40;2252.80;;;;;;5005235;28;20018;-79
2022/01/01 01:40:39;;;;;;;227.48;151.68;;;154.40;2252.80;;;;;;5006318;28;20026;-80
2022/01/01 01:43:10;;;;;;;224.00;148.30;;;154.30;2252.80;;;;;;5025985;28;20113;-80
2022/01/01 01:45:36;;;;;;;317.27;180.32;;;154.30;2252.80;;;;;;5002345;28;20077;-81
2022/01/01 01:48:03;;;;;;;218.45;144.85;;;154.30;2252.80;;;;;;4997461;28;20026;-81
2022/01/01 01:50:30;;;;;;;212.85;141.13;;;154.10;2252.80;;;;;;4997400;28;20033;-80
2022/01/01 01:52:58;;;;;;;202.23;134.90;;;153.90;2252.80;;;;;;5014999;28;20018;-80
2022/01/01 01:55:27;;;;;;;338.95;165.13;;;153.80;2252.80;;;;;;5014900;28;20028;-79
2022/01/01 01:57:54;;;;;;;584.63;201.05;;;153.80;2252.80;;;;;;4997299;28;20029;-80
2022/01/01 02:02:55;;;;;;;666.80;218.32;;;153.70;2252.80;;;;;;5014904;28;20018;-80
2022/01/01 02:05:22;;;;;;;518.63;199.82;;;153.70;2252.80;;;;;;4997043;28;20167;-80
2022/01/01 02:07:49;;;;;;;307.27;161.75;;;153.60;2252.80;;;;;;5014596;28;20017;-81
2022/01/01 02:10:15;;;;;;;284.67;153.10;;;128.90;2252.80;;;;;;4997059;28;20029;-80
2022/01/01 02:12:42;;;;;;;270.20;147.88;;;128.80;2252.80;;;;;;4997049;28;20113;-81
2022/01/01 02:15:26;;;;;;;351.83;162.90;;;128.70;2252.80;;;;;;4997271;28;20018;-80
2022/01/01 02:17:54;;;;;;;313.55;145.00;;;128.70;2252.80;;;;;;4997027;28;20501;-80
2022/01/01 02:20:21;;;;;;;260.10;135.23;;;128.50;2252.80;;;;;;5014819;28;20022;-81
2022/01/01 02:22:48;;;;;;;259.63;136.82;;;128.40;2252.80;;;;;;4996958;28;20057;-81
2022/01/01 02:25:17;;;;;;;306.58;144.82;;;128.40;2252.80;;;;;;5014802;28;20066;-81
2022/01/01 02:27:43;;;;;;;237.07;140.23;;;128.20;2252.80;;;;;;4997092;28;20056;-81
2022/01/01 02:30:12;;;;;;;237.65;140.75;;;128.30;2252.80;;;;;;5014515;28;20025;-81
2022/01/01 02:32:39;;;;;;;252.23;144.83;;;128.30;2252.80;;;;;;4996463;28;20500;-80
2022/01/01 02:35:07;;;;;;;287.33;158.10;;;128.40;2252.80;;;;;;4997018;28;20461;-82
2022/01/01 02:37:35;;;;;;;256.20;152.38;;;128.40;2252.80;;;;;;4996751;28;20394;-81
2022/01/01 02:40:02;;;;;;;252.65;153.43;;;128.50;2252.80;;;;;;4996893;28;20037;-81
2022/01/01 02:42:28;;;;;;;272.43;159.93;;;128.60;2252.80;;;;;;5014355;28;20028;-81
2022/01/01 02:44:54;;;;;;;255.00;159.32;;;128.70;2252.80;;;;;;4996331;28;20453;-80
2022/01/01 02:47:21;;;;;;;236.07;149.47;;;128.70;2252.80;;;;;;4996685;28;20030;-81
2022/01/01 02:49:47;;;;;;;232.10;150.13;;;128.90;2252.80;;;;;;4996199;28;20069;-80
2022/01/01 02:52:13;;;;;;;226.77;148.63;;;128.90;2252.80;;;;;;5014228;28;20054;-80
2022/01/01 02:54:39;;;;;;;225.30;147.23;;;153.60;2252.80;;;;;;4996458;28;20030;-80
2022/01/01 02:57:05;;;;;;;231.95;150.48;;;153.70;2252.80;;;;;;4996498;28;20120;-80
2022/01/01 02:59:31;;;;;;;234.82;147.32;;;153.70;2252.80;;;;;;4996562;28;20463;-79
2022/01/01 03:01:56;;;;;;;214.43;141.45;;;153.70;2252.80;;;;;;4996312;28;20029;-81
2022/01/01 03:04:22;;;;;;;207.38;139.63;;;153.80;2252.80;;;;;;5013890;28;20036;-80
2022/01/01 03:06:54;;;;;;;221.07;143.52;;;153.80;2252.80;;;;;;4996478;28;20040;-82
2022/01/01 03:09:22;;;;;;;214.70;140.07;;;153.80;2252.80;;;;;;4996544;28;20083;-81
2022/01/01 03:11:48;;;;;;;216.35;140.52;;;153.80;2252.80;;;;;;5014058;28;20029;-80
2022/01/01 03:14:17;;;;;;;204.63;133.23;;;153.80;2252.80;;;;;;5013968;28;20026;-82
2022/01/01 03:16:46;;;;;;;211.00;136.65;;;153.80;2252.80;;;;;;5016700;28;20036;-82
2022/01/01 03:19:13;;;;;;;199.60;130.63;;;153.70;2252.80;;;;;;5000548;28;20036;-81
2022/01/01 03:21:40;;;;;;;193.20;126.50;;;153.70;2252.80;;;;;;5000495;28;20033;-81
2022/01/01 03:24:07;;;;;;;208.80;132.07;;;153.60;2252.80;;;;;;5000608;28;20034;-81
2022/01/01 03:26:33;;;;;;;208.63;131.15;;;153.60;2252.80;;;;;;5000150;28;20030;-80
2022/01/01 03:28:59;;;;;;;202.77;128.38;;;153.70;2252.80;;;;;;5000312;28;20450;-82
2022/01/01 03:31:26;;;;;;;195.18;129.35;;;153.70;2252.80;;;;;;5000267;28;20021;-81
2022/01/01 03:33:52;;;;;;;200.33;130.90;;;153.80;2252.80;;;;;;5000115;28;20029;-81
2022/01/01 03:36:19;;;;;;;198.27;127.80;;;153.90;2252.80;;;;;;5000237;28;20121;-81
2022/01/01 03:38:45;;;;;;;213.43;132.27;;;153.90;2252.80;;;;;;5017728;28;20101;-80
2022/01/01 03:41:11;;;;;;;209.05;136.38;;;154.00;2252.80;;;;;;5000016;28;20513;-79
2022/01/01 03:43:37;;;;;;;210.10;134.50;;;154.00;2252.80;;;;;;4999850;28;20030;-79
2022/01/01 03:46:03;;;;;;;203.45;132.38;;;154.00;2252.80;;;;;;5017215;28;20050;-81
2022/01/01 03:48:28;;;;;;;192.10;127.68;;;154.00;2252.80;;;;;;5000035;28;20479;-80
2022/01/01 03:50:54;;;;;;;184.90;125.63;;;154.10;2252.80;;;;;;4999840;28;20478;-79
2022/01/01 03:53:21;;;;;;;187.05;123.80;;;154.20;2252.80;;;;;;4999617;28;20034;-80
2022/01/01 03:55:47;;;;;;;184.35;122.53;;;154.20;2252.80;;;;;;5017234;28;20136;-79
2022/01/01 03:58:13;;;;;;;185.77;122.22;;;154.30;2252.80;;;;;;5017127;28;20450;-78
2022/01/01 04:00:40;;;;;;;189.32;122.00;;;154.30;2252.80;;;;;;4999421;28;20033;-79
2022/01/01 04:03:11;;;;;;;191.80;126.63;;;154.30;2252.80;;;;;;4999360;28;20144;-79
2022/01/01 04:05:42;;;;;;;197.93;125.80;;;154.40;2252.80;;;;;;4999304;28;20034;-79
2022/01/01 04:08:09;;;;;;;192.60;125.32;;;154.40;2252.80;;;;;;4999318;28;20022;-78
2022/01/01 04:10:37;;;;;;;191.70;122.07;;;154.30;2252.80;;;;;;4999360;28;20119;-77
2022/01/01 04:13:05;;;;;;;208.23;128.57;;;154.30;2252.80;;;;;;4999322;28;20388;-78
2022/01/01 04:15:33;;;;;;;194.63;125.68;;;154.30;2252.80;;;;;;4999112;28;20021;-79
2022/01/01 04:18:03;;;;;;;201.23;126.90;;;154.30;2252.80;;;;;;4999159;28;20097;-79
2022/01/01 04:20:30;;;;;;;211.63;131.00;;;154.20;2252.80;;;;;;4999164;28;20030;-78
2022/01/01 04:22:57;;;;;;;203.38;131.23;;;154.20;2252.80;;;;;;4999173;28;20033;-79
2022/01/01 04:25:25;;;;;;;204.70;128.20;;;154.00;2252.80;;;;;;4998980;28;20038;-79
2022/01/01 04:27:52;;;;;;;217.85;130.20;;;153.90;2252.80;;;;;;4998560;28;20031;-79
2022/01/01 04:30:19;;;;;;;215.55;133.02;;;154.00;2252.80;;;;;;5016529;28;20041;-79
2022/01/01 04:32:45;;;;;;;205.45;129.95;;;154.00;2252.80;;;;;;4999025;28;20073;-81
2022/01/01 04:35:11;;;;;;;208.70;127.55;;;154.00;2252.80;;;;;;5016531;28;20034;-79
2022/01/01 04:37:38;;;;;;;191.50;121.43;;;153.90;2252.80;;;;;;5016502;28;20018;-79
2022/01/01 04:40:07;;;;;;;202.27;122.93;;;153.90;2252.80;;;;;;5016457;28;20501;-83
2022/01/01 04:42:34;;;;;;;186.27;118.88;;;153.80;2252.80;;;;;;4998725;28;20379;-78
2022/01/01 04:44:59;;;;;;;184.02;115.70;;;153.70;2252.80;;;;;;5015991;28;20038;-77
2022/01/01 04:47:26;;;;;;;159.18;103.03;;;153.60;2252.80;;;;;;4998787;28;20037;-81
2022/01/01 04:49:52;;;;;;;152.35;100.78;;;153.60;2252.80;;;;;;5016255;28;20022;-79
2022/01/01 04:52:18;;;;;;;139.10;93.70;;;153.60;2252.80;;;;;;4998646;28;20506;-80
2022/01/01 04:54:44;;;;;;;138.20;95.53;;;153.60;2252.80;;;;;;4998634;28;20029;-80
2022/01/01 04:57:12;;;;;;;122.18;88.07;;;153.60;2252.80;;;;;;4998468;28;20502;-81
2022/01/01 04:59:39;;;;;;;125.20;83.20;;;153.60;2252.80;;;;;;4998507;28;20080;-79
2022/01/01 05:02:06;;;;;;;125.28;87.47;;;153.70;2252.80;;;;;;4998388;28;20101;-81
2022/01/01 05:04:32;;;;;;;122.40;84.20;;;153.60;2252.80;;;;;;4998301;28;20034;-78
2022/01/01 05:06:58;;;;;;;115.18;80.97;;;153.60;2252.80;;;;;;5015888;28;20093;-79
2022/01/01 05:09:27;;;;;;;125.85;82.72;;;153.60;2252.80;;;;;;4998289;28;20117;-79
2022/01/01 05:11:54;;;;;;;126.20;85.50;;;128.90;2252.80;;;;;;4998153;28;20025;-80
2022/01/01 05:14:20;;;;;;;117.00;83.37;;;128.90;2252.80;;;;;;4998245;28;20022;-78
2022/01/01 05:16:47;;;;;;;115.97;82.40;;;128.90;2252.80;;;;;;4998198;28;20113;-79
2022/01/01 05:19:15;;;;;;;110.90;79.57;;;128.90;2252.80;;;;;;4998095;28;20034;-78
2022/01/01 05:21:41;;;;;;;102.25;73.40;;;128.90;2252.80;;;;;;5015598;28;20085;-79
2022/01/01 05:24:08;;;;;;;99.15;70.50;;;128.90;2252.80;;;;;;5015553;28;20049;-79
2022/01/01 05:26:34;;;;;;;100.20;73.40;;;128.90;2252.80;;;;;;5015473;28;20026;-79
2022/01/01 05:29:00;;;;;;;95.75;70.63;;;128.90;2252.80;;;;;;5015490;28;20470;-78
2022/01/01 05:31:26;;;;;;;92.20;66.67;;;128.90;2252.80;;;;;;4997888;28;20060;-79
2022/01/01 05:33:52;;;;;;;92.72;67.18;;;128.90;2252.80;;;;;;4997733;28;20556;-78
2022/01/01 05:36:19;;;;;;;84.45;63.35;;;128.90;2252.80;;;;;;4997808;28;20048;-79
2022/01/01 05:38:46;;;;;;;81.83;62.00;;;128.90;2252.80;;;;;;5014376;28;20022;-78
2022/01/01 05:41:12;;;;;;;84.33;61.10;;;128.90;2252.80;;;;;;4997699;28;20057;-78
2022/01/01 05:43:38;;;;;;;81.33;60.90;;;128.90;2252.80;;;;;;5015227;28;20026;-79
2022/01/01 05:46:04;;;;;;;75.43;56.70;;;128.90;2252.80;;;;;;5014864;28;20128;-78
2022/01/01 05:48:30;;;;;;;73.47;54.20;;;153.60;2252.80;;;;;;4997302;28;20029;-79
2022/01/01 05:50:56;;;;;;;69.70;53.63;;;128.90;2252.80;;;;;;4997597;28;20057;-80
2022/01/01 05:53:22;;;;;;;71.57;54.25;;;128.90;2252.80;;;;;;5015378;28;20061;-82
2022/01/01 05:55:49;;;;;;;70.00;54.00;;;128.90;2252.80;;;;;;4997647;28;20129;-79
2022/01/01 05:58:15;;;;;;;69.07;52.10;;;128.80;2252.80;;;;;;4997595;28;20022;-79
2022/01/01 06:00:42;;;;;;;72.37;54.03;;;128.70;2252.80;;;;;;4997227;28;20050;-80
2022/01/01 06:03:08;;;;;;;72.17;53.10;;;128.60;2252.80;;;;;;4997199;28;20439;-78
2022/01/01 06:05:34;;;;;;;72.00;54.00;;;128.50;2252.80;;;;;;5014878;28;20037;-78
2022/01/01 06:08:00;;;;;;;69.93;53.13;;;128.50;2252.80;;;;;;5015213;28;20021;-80
2022/01/01 06:10:27;;;;;;;71.00;52.03;;;128.50;2252.80;;;;;;5015603;28;20041;-79
2022/01/01 06:12:53;;;;;;;79.07;56.13;;;128.40;2252.80;;;;;;5014991;28;20029;-79
2022/01/01 06:15:20;;;;;;;81.83;57.67;;;128.50;2252.80;;;;;;4997338;28;20079;-79
2022/01/01 06:17:46;;;;;;;69.13;51.67;;;128.50;2252.80;;;;;;4997222;28;20026;-81
2022/01/01 06:20:12;;;;;;;60.60;46.23;;;128.50;2252.80;;;;;;4997046;28;20478;-82
2022/01/01 06:22:38;;;;;;;62.20;45.83;;;128.60;2252.80;;;;;;4996807;28;20025;-79
2022/01/01 06:25:05;;;;;;;61.33;45.55;;;128.60;2252.80;;;;;;5014812;28;20034;-78
2022/01/01 06:27:31;;;;;;;56.33;42.72;;;128.60;2252.80;;;;;;4997221;28;20022;-78
2022/01/01 06:29:57;;;;;;;55.50;41.23;;;128.70;2252.80;;;;;;4997444;28;20359;-79
2022/01/01 06:32:23;;;;;;;56.13;41.10;;;128.70;2252.80;;;;;;4996780;28;20132;-79
2022/01/01 06:34:49;;;;;;;58.43;43.63;;;128.70;2252.80;;;;;;5014669;28;20382;-79
2022/01/01 06:37:15;;;;;;;55.27;41.93;;;128.70;2252.80;;;;;;4997724;28;20386;-78
2022/01/01 06:39:43;;;;;;;53.93;41.73;;;128.70;2252.80;;;;;;4997151;28;20469;-80
2022/01/01 06:42:09;;;;;;;52.63;38.97;;;128.70;2252.80;;;;;;4997682;28;20072;-79
2022/01/01 06:44:35;;;;;;;49.97;38.25;;;128.70;2252.80;;;;;;4996742;28;20049;-79
2022/01/01 06:47:01;;;;;;;48.57;37.07;;;128.70;2252.80;;;;;;5015177;28;20037;-79
2022/01/01 06:49:27;;;;;;;49.83;37.63;;;128.70;2252.80;;;;;;4996858;28;20468;-79
2022/01/01 06:51:52;;;;;;;48.20;36.20;;;128.80;2252.80;;;;;;5015545;28;20080;-78
2022/01/01 06:54:18;;;;;;;45.77;36.07;;;128.80;2252.80;;;;;;4997314;28;20033;-78
2022/01/01 06:56:44;;;;;;;48.58;34.78;;;128.80;2252.80;;;;;;4996834;28;20025;-80
2022/01/01 06:59:10;;;;;;;44.40;32.73;;;128.90;2252.80;;;;;;5014315;28;20022;-78
2022/01/01 07:01:37;;;;;;;44.63;33.27;;;128.90;2252.80;;;;;;4997086;28;20022;-78
2022/01/01 07:04:03;;;;;;;49.07;35.13;;;128.90;2252.80;;;;;;4997559;28;20026;-79
2022/01/01 07:06:30;;;;;;;50.97;35.93;;;128.90;2252.80;;;;;;4997862;28;20033;-80
2022/01/01 07:08:56;;;;;;;47.47;34.75;;;153.60;2252.80;;;;;;4997670;28;20022;-82
2022/01/01 07:11:22;;;;;;;47.25;32.72;;;153.60;2252.80;;;;;;4996251;28;20048;-78
2022/01/01 07:13:48;;;;;;;40.80;32.20;;;153.70;2252.80;;;;;;5013820;28;20050;-80
2022/01/01 07:16:14;;;;;;;44.83;33.25;;;153.80;2252.80;;;;;;5013863;28;20056;-77
2022/01/01 07:18:40;;;;;;;45.58;32.75;;;153.90;2252.80;;;;;;5013924;28;20033;-82
2022/01/01 07:21:06;;;;;;;43.00;32.57;;;153.90;2252.80;;;;;;5014225;28;20105;-77
2022/01/01 07:23:32;;;;;;;42.15;28.05;;;154.00;2252.80;;;;;;5014722;28;20542;-79
2022/01/01 07:25:58;;;;;;;34.65;27.17;;;154.10;2252.80;;;;;;4996273;28;20045;-80
2022/01/01 07:28:24;;;;;;;36.40;26.73;;;154.10;2252.80;;;;;;4996227;28;20053;-79
2022/01/01 07:30:49;;;;;;;36.70;27.73;;;154.20;2252.80;;;;;;4996294;28;20541;-79
2022/01/01 07:33:16;;;;;;;36.70;27.42;;;154.20;2252.80;;;;;;4996770;28;20386;-79
2022/01/01 07:35:42;;;;;;;37.13;27.52;;;154.30;2252.80;;;;;;4996678;28;20056;-78
2022/01/01 07:38:08;;;;;;;37.00;27.20;;;154.40;2252.80;;;;;;5013961;28;20022;-77
2022/01/01 07:40:35;;;;;;;33.95;26.55;;;154.40;2252.80;;;;;;4997016;28;20030;-79
2022/01/01 07:43:12;;;;;;;38.97;26.67;;;154.50;2252.80;;;;;;4996561;28;20176;-80
2022/01/01 07:45:38;;;;;;;34.55;24.92;;;179.20;2252.80;;;;;;5013337;28;20046;-81
2022/01/01 07:48:06;;;;;;;32.20;24.33;;;179.30;2252.80;;;;;;5013766;28;20221;-78
2022/01/01 07:50:32;;;;;;;36.53;27.33;;;179.40;2252.80;;;;;;4995973;28;20033;-79
2022/01/01 07:52:58;;;;;;;34.20;24.80;;;179.50;2252.80;;;;;;4996620;28;20026;-79
2022/01/01 07:55:23;;;;;;;33.67;24.52;;;179.60;2252.80;;;;;;4995946;28;20164;-81
2022/01/01 07:57:49;;;;;;;34.53;26.52;;;179.90;2252.80;;;;;;5013677;28;20030;-80
2022/01/01 08:00:15;;;;;;;35.45;25.38;;;179.90;2252.80;;;;;;4996336;28;20037;-80
2022/01/01 08:02:43;;;;;;;40.58;28.75;;;180.00;2252.80;;;;;;5016065;28;20037;-79
2022/01/01 08:05:10;;;;;;;42.30;28.20;;;204.80;2252.80;;;;;;4999482;28;20043;-78
2022/01/01 08:07:36;;;;;;;45.40;27.27;;;204.80;2252.80;;;;;;5017393;28;20454;-78
2022/01/01 08:10:03;;;;;;;32.10;22.80;;;205.00;2252.80;;;;;;5017564;28;20030;-78
2022/01/01 08:12:29;;;;;;;30.58;20.63;;;205.10;2252.80;;;;;;5017137;28;20029;-78
2022/01/01 08:14:56;;;;;;;29.55;20.13;;;205.30;2252.80;;;;;;5017279;28;20498;-78
2022/01/01 08:17:24;;;;;;;32.13;21.83;;;205.50;2252.80;;;;;;5000256;28;20040;-78
2022/01/01 08:19:50;;;;;;;25.60;17.83;;;205.70;2252.80;;;;;;5000555;28;20052;-78
2022/01/01 08:22:16;;;;;;;32.17;20.80;;;230.40;2252.80;;;;;;5018228;28;20382;-80
2022/01/01 08:24:42;;;;;;;31.92;22.55;;;230.50;2252.80;;;;;;5016950;28;20033;-78
2022/01/01 08:27:08;;;;;;;26.33;18.92;;;230.60;2252.80;;;;;;4998966;28;20441;-79
2022/01/01 08:29:34;;;;;;;29.48;19.30;;;230.60;2252.80;;;;;;5017266;28;20030;-80
2022/01/01 08:32:00;;;;;;;32.30;23.67;;;230.60;2252.80;;;;;;5017709;28;20034;-78
2022/01/01 08:34:26;;;;;;;29.85;21.45;;;230.60;2252.80;;;;;;5017436;28;20375;-79
2022/01/01 08:36:52;;;;;;;30.35;21.65;;;230.60;2252.80;;;;;;4999945;28;20026;-78
2022/01/01 08:39:19;;;;;;;28.48;20.95;;;230.60;2252.80;;;;;;5017176;28;20060;-78
2022/01/01 08:41:46;;;;;;;25.60;19.63;;;230.60;2252.80;;;;;;4999072;28;20394;-77
2022/01/01 08:44:12;;;;;;;29.63;20.83;;;230.60;2252.80;;;;;;5000584;28;20026;-78
2022/01/01 08:46:39;;;;;;;31.98;20.85;;;230.60;2252.80;;;;;;5007210;28;20040;-79
2022/01/01 08:49:05;;;;;;;48.75;28.27;;;230.60;2252.80;;;;;;5012474;28;20025;-80
2022/01/01 08:51:36;;;;;;;46.58;26.05;;;230.70;2252.80;;;;;;5035696;28;20108;-78
2022/01/01 08:54:03;;;;;;;53.17;30.02;;;230.80;2252.80;;;;;;5018062;28;20421;-78
2022/01/01 08:56:29;;;;;;;49.75;29.05;;;231.00;2252.80;;;;;;5017969;28;20030;-80
2022/01/01 08:58:55;;;;;;;39.63;25.23;;;231.10;2252.80;;;;;;5035529;28;20033;-80
2022/01/01 09:01:21;;;;;;;36.10;22.90;;;231.20;2252.80;;;;;;5017802;28;20184;-78
2022/01/01 09:03:48;;;;;;;28.73;20.15;;;231.30;2252.80;;;;;;5017749;28;20171;-76
2022/01/01 09:06:14;;;;;;;33.15;20.95;;;256.10;2252.80;;;;;;5017683;28;20379;-83
2022/01/01 09:08:42;;;;;;;33.65;21.48;;;256.30;2252.80;;;;;;5035640;28;20381;-81
2022/01/01 09:11:11;;;;;;;35.53;22.88;;;256.40;2252.80;;;;;;5018145;28;20029;-81
2022/01/01 09:13:43;;;;;;;29.35;19.85;;;256.50;2252.80;;;;;;5017436;28;20030;-84
2022/01/01 09:16:15;;;;;;;31.02;19.13;;;256.60;2252.80;;;;;;5036483;28;20033;-87
2022/01/01 09:18:43;;;;;;;26.73;18.35;;;256.80;2252.80;;;;;;5018705;28;20075;-79
2022/01/01 09:21:10;;;;;;;27.02;17.90;;;281.60;2278.40;;;;;;5017800;28;20026;-78
2022/01/01 09:23:36;;;;;;;29.08;19.77;;;281.80;2278.40;;;;;;5035320;28;20029;-78
2022/01/01 09:26:02;;;;;;;25.83;17.88;;;281.80;2278.40;;;;;;5012524;28;20064;-80
2022/01/01 09:28:30;;;;;;;25.48;18.17;;;282.00;2278.40;;;;;;4997771;28;20161;-77
2022/01/01 09:30:57;;;;;;;25.35;18.30;;;282.10;2278.40;;;;;;4997883;28;20117;-81
2022/01/01 09:33:27;;;;;;;26.10;17.85;;;282.20;2278.40;;;;;;5015613;28;20030;-78
2022/01/01 09:35:53;;;;;;;26.48;18.90;;;282.40;2278.40;;;;;;5015217;28;20125;-77
2022/01/01 09:38:19;;;;;;;26.05;19.05;;;282.50;2278.40;;;;;;5015664;28;20058;-77
2022/01/01 09:40:44;;;;;;;24.73;16.77;;;307.20;2304.00;;;;;;4997745;28;20026;-79
2022/01/01 09:43:12;;;;;;;27.33;18.95;;;307.40;2304.00;;;;;;4998355;28;20069;-79
2022/01/01 09:45:41;;;;;;;26.88;18.27;;;307.50;2304.00;;;;;;4997231;28;20061;-80
2022/01/01 09:48:08;;;;;;;30.42;17.13;;;307.70;2304.00;;;;;;4997973;28;20030;-80
2022/01/01 09:50:34;;;;;;;27.25;17.15;;;307.90;2304.00;;;;;;4997820;28;20502;-78
2022/01/01 09:53:01;;;;;;;22.70;15.98;;;308.10;2304.00;;;;;;5015193;28;20022;-77
2022/01/01 09:55:26;;;;;;;25.10;15.13;;;332.90;2329.60;;;;;;4997604;28;20496;-77
2022/01/01 09:57:52;;;;;;;25.85;15.50;;;333.50;2329.60;;;;;;5015365;28;20030;-80
2022/01/01 10:00:18;;;;;;;25.27;16.83;;;358.70;2329.60;;;;;;5014659;28;20033;-83
2022/01/01 10:02:44;;;;;;;23.80;15.77;;;410.50;2355.20;;;;;;5016128;28;20058;-77
2022/01/01 10:05:10;;;;;;;22.90;14.32;;;512.40;1715.20;;;;;;5015404;28;20091;-78
2022/01/01 10:07:36;;;;;;;29.60;17.40;;;563.40;1536.00;;;;;;4997805;28;20485;-76
2022/01/01 10:10:25;;;;;;;23.65;16.83;;;614.90;1356.80;;;;;;4997967;28;20072;-81
2022/01/01 10:12:51;;;;;;;18.95;13.18;;;691.20;1177.60;;;;;;5015408;28;20018;-82
2022/01/01 10:15:17;;;;;;;21.30;12.77;;;640.30;1203.20;;;;;;5015075;28;20054;-78
2022/01/01 10:17:44;;;;;;;25.90;18.17;;;614.40;1280.00;;;;;;4998133;28;20026;-82
2022/01/01 10:20:10;;;;;;;41.92;30.92;;;614.80;1280.00;;;;;;5015717;28;20084;-84
2022/01/01 10:22:37;;;;;;;35.90;24.15;;;640.90;1152.00;;;;;;4997681;28;20026;-78
2022/01/01 10:27:59;;;;;;;25.02;15.57;;;640.90;1152.00;;;;;;5015156;28;20477;-80
2022/01/01 10:30:43;;;;;;;70.63;43.42;;;614.80;1254.40;;;;;;5014658;28;20025;-80
2022/01/01 10:33:12;;;;;;;26.73;18.65;;;588.90;1382.40;;;;;;4998064;28;20470;-79
2022/01/01 10:35:41;;;;;;;20.52;15.05;;;563.70;1459.20;;;;;;4997390;28;20037;-81
2022/01/01 10:38:26;;;;;;;16.05;11.10;;;538.30;1484.80;;;;;;4996697;28;20028;-79
2022/01/01 10:41:08;;;;;;;22.98;15.80;;;512.40;1561.60;;;;;;4996520;28;20477;-76
2022/01/01 10:43:39;;;;;;;38.33;25.60;;;486.60;1689.60;;;;;;4996490;28;20026;-77
2022/01/01 10:46:06;;;;;;;18.55;12.63;;;487.10;1638.40;;;;;;4995475;28;20074;-77
2022/01/01 10:50:59;;;;;;;14.80;8.90;;;512.00;1664.00;;;;;;5014659;28;20557;-77
2022/01/01 10:53:27;;;;;;;15.23;10.85;;;564.10;1459.20;;;;;;5014735;28;20034;-76
2022/01/01 10:55:58;;;;;;;20.33;15.65;;;640.20;1254.40;;;;;;4996454;28;20080;-76
2022/01/01 10:58:31;;;;;;;21.55;14.57;;;691.50;1152.00;;;;;;4996540;28;20156;-77
2022/01/01 11:01:01;;;;;;;15.90;10.90;;;640.10;1254.40;;;;;;4996480;28;20025;-77
2022/01/01 11:03:28;;;;;;;9.80;7.95;;;564.10;1433.60;;;;;;5014383;28;20463;-76
2022/01/01 11:06:06;;;;;;;11.77;6.93;;;537.80;1561.60;;;;;;5013893;28;20032;-76
2022/01/01 11:08:35;;;;;;;10.70;8.48;;;615.00;1305.60;;;;;;5013601;28;20107;-76
2022/01/01 11:11:02;;;;;;;14.50;8.75;;;665.90;1177.60;;;;;;4996071;28;20426;-77
2022/01/01 11:13:30;;;;;;;15.00;9.40;;;640.00;1254.40;;;;;;4996326;28;20061;-77
2022/01/01 11:15:56;;;;;;;9.57;6.53;;;563.20;1510.40;;;;;;5013596;28;20041;-77
2022/01/01 11:18:27;;;;;;;19.83;13.02;;;512.00;1612.80;;;;;;4996021;28;20030;-77
2022/01/01 11:20:52;;;;;;;12.65;7.25;;;486.50;1740.80;;;;;;5014173;28;20080;-77
2022/01/01 11:23:20;;;;;;;11.15;6.68;;;461.60;1792.00;;;;;;5002047;28;20018;-77
2022/01/01 11:25:46;;;;;;;11.82;8.50;;;436.00;1894.40;;;;;;5003624;28;20063;-77
2022/01/01 11:28:17;;;;;;;25.08;15.52;;;435.50;1920.00;;;;;;5003606;28;20017;-77
2022/01/01 11:30:52;;;;;;;21.63;11.88;;;410.50;1996.80;;;;;;5003933;28;20026;-77
2022/01/01 11:33:42;;;;;;;15.00;8.02;;;410.20;2073.60;;;;;;5021965;28;20104;-78
2022/01/01 11:36:21;;;;;;;20.55;10.93;;;410.00;2124.80;;;;;;5022890;28;20025;-76
2022/01/01 11:38:48;;;;;;;8.23;4.53;;;409.80;2176.00;;;;;;5006395;28;20018;-76
2022/01/01 11:41:17;;;;;;;13.20;7.20;;;409.70;2176.00;;;;;;5004211;28;20030;-78
2022/01/01 11:43:52;;;;;;;23.48;14.32;;;409.70;2227.20;;;;;;4999682;28;20053;-78
2022/01/01 11:46:27;;;;;;;19.38;13.90;;;409.80;2227.20;;;;;;4999504;28;20077;-76
2022/01/01 11:49:00;;;;;;;13.48;8.35;;;409.70;2201.60;;;;;;5017362;28;20030;-78
2022/01/01 11:51:33;;;;;;;;;;;409.70;2201.60;;;;;;5017741;28;20026;-77
2022/01/01 11:54:14;;;;;;;78.07;48.50;;;409.80;2227.20;;;;;;4999667;28;19905;-77
2022/01/01 11:56:49;;;;;;;18.10;10.15;;;409.70;2252.80;;;;;;4999570;28;20278;-77
2022/01/01 11:59:45;;;;;;;21.95;11.88;;;409.70;2227.20;;;;;;4999517;28;20022;-78
2022/01/01 12:02:20;;;;;;;26.35;16.67;;;409.80;2252.80;;;;;;4998879;28;20375;-78
2022/01/01 12:04:49;;;;;;;28.27;17.90;;;409.80;2252.80;;;;;;5016917;28;20390;-78